sensor_id;sensor_type;location;lat;lon;timestamp;pressure;altitude;pressure_sealevel;temperature
16956;BMP180;8594;52.052;8.354;2022-10-24T00:00:16;99803.00;;;17.70
16956;BMP180;8594;52.052;8.354;2022-10-24T00:02:43;99797.00;;;17.50
16956;BMP180;8594;52.052;8.354;2022-10-24T00:05:11;99800.00;;;17.70
16956;BMP180;8594;52.052;8.354;2022-10-24T00:07:39;99803.00;;;17.50
16956;BMP180;8594;52.052;8.354;2022-10-24T00:10:07;99795.00;;;17.70
16956;BMP180;8594;52.052;8.354;2022-10-24T00:12:36;99792.00;;;17.70
16956;BMP180;8594;52.052;8.354;2022-10-24T00:15:04;99784.00;;;17.80
16956;BMP180;8594;52.052;8.354;2022-10-24T00:17:32;99778.00;;;17.80
16956;BMP180;8594;52.052;8.354;2022-10-24T00:19:59;99778.00;;;17.70
16956;BMP180;8594;52.052;8.354;2022-10-24T00:22:27;99781.00;;;17.70
16956;BMP180;8594;52.052;8.354;2022-10-24T00:24:54;99779.00;;;17.80
16956;BMP180;8594;52.052;8.354;2022-10-24T00:27:20;99783.00;;;17.80
16956;BMP180;8594;52.052;8.354;2022-10-24T00:29:49;99782.00;;;17.70
16956;BMP180;8594;52.052;8.354;2022-10-24T00:32:16;99774.00;;;17.70
16956;BMP180;8594;52.052;8.354;2022-10-24T00:34:43;99774.00;;;17.60
16956;BMP180;8594;52.052;8.354;2022-10-24T00:37:11;99774.00;;;17.50
16956;BMP180;8594;52.052;8.354;2022-10-24T00:39:38;99779.00;;;17.60
16956;BMP180;8594;52.052;8.354;2022-10-24T00:42:05;99768.00;;;17.60
16956;BMP180;8594;52.052;8.354;2022-10-24T00:44:37;99771.00;;;17.30
16956;BMP180;8594;52.052;8.354;2022-10-24T00:47:09;99765.00;;;17.30
16956;BMP180;8594;52.052;8.354;2022-10-24T00:49:45;99758.00;;;17.30
16956;BMP180;8594;52.052;8.354;2022-10-24T00:52:16;99770.00;;;17.40
16956;BMP180;8594;52.052;8.354;2022-10-24T00:54:45;99756.00;;;17.60
16956;BMP180;8594;52.052;8.354;2022-10-24T00:57:18;99757.00;;;17.60
16956;BMP180;8594;52.052;8.354;2022-10-24T00:59:52;99748.00;;;17.50
16956;BMP180;8594;52.052;8.354;2022-10-24T01:02:22;99744.00;;;17.50
16956;BMP180;8594;52.052;8.354;2022-10-24T01:04:49;99737.00;;;17.40
16956;BMP180;8594;52.052;8.354;2022-10-24T01:07:33;99736.00;;;17.20
16956;BMP180;8594;52.052;8.354;2022-10-24T01:10:31;99736.00;;;17.40
16956;BMP180;8594;52.052;8.354;2022-10-24T01:13:13;99745.00;;;17.30
16956;BMP180;8594;52.052;8.354;2022-10-24T01:15:52;99741.00;;;17.30
16956;BMP180;8594;52.052;8.354;2022-10-24T01:18:27;99744.00;;;17.50
16956;BMP180;8594;52.052;8.354;2022-10-24T01:21:13;99740.00;;;17.30
16956;BMP180;8594;52.052;8.354;2022-10-24T01:24:40;99735.00;;;17.50
16956;BMP180;8594;52.052;8.354;2022-10-24T01:27:51;99722.00;;;17.20
16956;BMP180;8594;52.052;8.354;2022-10-24T01:30:22;99725.00;;;17.10
16956;BMP180;8594;52.052;8.354;2022-10-24T01:32:57;99720.00;;;17.20
16956;BMP180;8594;52.052;8.354;2022-10-24T01:35:35;99723.00;;;17.40
16956;BMP180;8594;52.052;8.354;2022-10-24T01:38:14;99719.00;;;17.40
16956;BMP180;8594;52.052;8.354;2022-10-24T01:40:50;99723.00;;;17.50
16956;BMP180;8594;52.052;8.354;2022-10-24T01:43:22;99693.00;;;17.50
16956;BMP180;8594;52.052;8.354;2022-10-24T01:45:58;99695.00;;;17.50
16956;BMP180;8594;52.052;8.354;2022-10-24T01:48:30;99697.00;;;17.30
16956;BMP180;8594;52.052;8.354;2022-10-24T01:51:02;99717.00;;;17.30
16956;BMP180;8594;52.052;8.354;2022-10-24T01:53:30;99711.00;;;17.40
16956;BMP180;8594;52.052;8.354;2022-10-24T01:55:58;99694.00;;;17.20
16956;BMP180;8594;52.052;8.354;2022-10-24T01:58:26;99697.00;;;17.20
16956;BMP180;8594;52.052;8.354;2022-10-24T02:00:59;99685.00;;;17.20
16956;BMP180;8594;52.052;8.354;2022-10-24T02:03:35;99673.00;;;17.40
16956;BMP180;8594;52.052;8.354;2022-10-24T02:06:09;99685.00;;;17.50
16956;BMP180;8594;52.052;8.354;2022-10-24T02:08:43;99689.00;;;17.30
16956;BMP180;8594;52.052;8.354;2022-10-24T02:11:12;99688.00;;;17.40
16956;BMP180;8594;52.052;8.354;2022-10-24T02:13:48;99689.00;;;17.40
16956;BMP180;8594;52.052;8.354;2022-10-24T02:16:19;99681.00;;;17.50
16956;BMP180;8594;52.052;8.354;2022-10-24T02:18:49;99675.00;;;17.50
16956;BMP180;8594;52.052;8.354;2022-10-24T02:21:26;99673.00;;;17.30
16956;BMP180;8594;52.052;8.354;2022-10-24T02:23:59;99665.00;;;17.50
16956;BMP180;8594;52.052;8.354;2022-10-24T02:26:33;99668.00;;;17.60
16956;BMP180;8594;52.052;8.354;2022-10-24T02:29:09;99663.00;;;17.70
16956;BMP180;8594;52.052;8.354;2022-10-24T02:31:43;99672.00;;;17.60
16956;BMP180;8594;52.052;8.354;2022-10-24T02:34:16;99657.00;;;17.70
16956;BMP180;8594;52.052;8.354;2022-10-24T02:36:47;99649.00;;;17.80
16956;BMP180;8594;52.052;8.354;2022-10-24T02:39:16;99645.00;;;17.80
16956;BMP180;8594;52.052;8.354;2022-10-24T02:41:44;99654.00;;;17.80
16956;BMP180;8594;52.052;8.354;2022-10-24T02:44:14;99650.00;;;17.60
16956;BMP180;8594;52.052;8.354;2022-10-24T02:46:45;99657.00;;;17.80
16956;BMP180;8594;52.052;8.354;2022-10-24T02:49:13;99647.00;;;17.80
16956;BMP180;8594;52.052;8.354;2022-10-24T02:51:43;99647.00;;;17.60
16956;BMP180;8594;52.052;8.354;2022-10-24T02:54:11;99644.00;;;17.60
16956;BMP180;8594;52.052;8.354;2022-10-24T02:56:44;99642.00;;;17.80
16956;BMP180;8594;52.052;8.354;2022-10-24T02:59:12;99635.00;;;18.00
16956;BMP180;8594;52.052;8.354;2022-10-24T03:01:38;99637.00;;;18.00
16956;BMP180;8594;52.052;8.354;2022-10-24T03:04:07;99637.00;;;17.80
16956;BMP180;8594;52.052;8.354;2022-10-24T03:06:34;99633.00;;;18.00
16956;BMP180;8594;52.052;8.354;2022-10-24T03:09:00;99624.00;;;18.00
16956;BMP180;8594;52.052;8.354;2022-10-24T03:11:28;99630.00;;;18.00
16956;BMP180;8594;52.052;8.354;2022-10-24T03:13:54;99633.00;;;17.70
16956;BMP180;8594;52.052;8.354;2022-10-24T03:16:22;99632.00;;;17.80
16956;BMP180;8594;52.052;8.354;2022-10-24T03:18:49;99637.00;;;17.90
16956;BMP180;8594;52.052;8.354;2022-10-24T03:21:17;99639.00;;;17.90
16956;BMP180;8594;52.052;8.354;2022-10-24T03:23:44;99637.00;;;17.70
16956;BMP180;8594;52.052;8.354;2022-10-24T03:26:11;99636.00;;;17.40
16956;BMP180;8594;52.052;8.354;2022-10-24T03:28:39;99643.00;;;17.40
16956;BMP180;8594;52.052;8.354;2022-10-24T03:31:06;99636.00;;;17.30
16956;BMP180;8594;52.052;8.354;2022-10-24T03:33:34;99636.00;;;17.40
16956;BMP180;8594;52.052;8.354;2022-10-24T03:36:01;99630.00;;;17.40
16956;BMP180;8594;52.052;8.354;2022-10-24T03:38:29;99630.00;;;17.40
16956;BMP180;8594;52.052;8.354;2022-10-24T03:40:56;99633.00;;;17.20
16956;BMP180;8594;52.052;8.354;2022-10-24T03:43:23;99646.00;;;17.20
16956;BMP180;8594;52.052;8.354;2022-10-24T03:45:50;99637.00;;;17.40
16956;BMP180;8594;52.052;8.354;2022-10-24T03:48:17;99631.00;;;17.50
16956;BMP180;8594;52.052;8.354;2022-10-24T03:50:44;99632.00;;;17.40
16956;BMP180;8594;52.052;8.354;2022-10-24T03:53:11;99620.00;;;17.50
16956;BMP180;8594;52.052;8.354;2022-10-24T03:55:39;99629.00;;;17.50
16956;BMP180;8594;52.052;8.354;2022-10-24T03:58:06;99622.00;;;17.70
16956;BMP180;8594;52.052;8.354;2022-10-24T04:00:33;99626.00;;;17.60
16956;BMP180;8594;52.052;8.354;2022-10-24T04:03:04;99629.00;;;17.50
16956;BMP180;8594;52.052;8.354;2022-10-24T04:05:31;99631.00;;;17.50
16956;BMP180;8594;52.052;8.354;2022-10-24T04:07:58;99628.00;;;17.50
16956;BMP180;8594;52.052;8.354;2022-10-24T04:10:25;99635.00;;;17.30
16956;BMP180;8594;52.052;8.354;2022-10-24T04:12:53;99633.00;;;17.40
16956;BMP180;8594;52.052;8.354;2022-10-24T04:15:20;99636.00;;;17.60
16956;BMP180;8594;52.052;8.354;2022-10-24T04:17:47;99632.00;;;17.70
16956;BMP180;8594;52.052;8.354;2022-10-24T04:20:14;99637.00;;;17.60
16956;BMP180;8594;52.052;8.354;2022-10-24T04:22:44;99638.00;;;17.70
16956;BMP180;8594;52.052;8.354;2022-10-24T04:25:11;99640.00;;;17.50
16956;BMP180;8594;52.052;8.354;2022-10-24T04:27:38;99644.00;;;17.30
16956;BMP180;8594;52.052;8.354;2022-10-24T04:30:09;99647.00;;;17.20
16956;BMP180;8594;52.052;8.354;2022-10-24T04:32:36;99647.00;;;17.40
16956;BMP180;8594;52.052;8.354;2022-10-24T04:35:05;99658.00;;;17.50
16956;BMP180;8594;52.052;8.354;2022-10-24T04:37:32;99656.00;;;17.60
16956;BMP180;8594;52.052;8.354;2022-10-24T04:39:59;99656.00;;;17.40
16956;BMP180;8594;52.052;8.354;2022-10-24T04:42:26;99646.00;;;17.60
16956;BMP180;8594;52.052;8.354;2022-10-24T04:44:53;99634.00;;;17.40
16956;BMP180;8594;52.052;8.354;2022-10-24T04:47:21;99638.00;;;17.20
16956;BMP180;8594;52.052;8.354;2022-10-24T04:49:48;99646.00;;;17.30
16956;BMP180;8594;52.052;8.354;2022-10-24T04:52:15;99650.00;;;17.30
16956;BMP180;8594;52.052;8.354;2022-10-24T04:54:42;99654.00;;;17.20
16956;BMP180;8594;52.052;8.354;2022-10-24T04:57:09;99652.00;;;17.40
16956;BMP180;8594;52.052;8.354;2022-10-24T04:59:36;99648.00;;;17.50
16956;BMP180;8594;52.052;8.354;2022-10-24T05:02:03;99647.00;;;17.70
16956;BMP180;8594;52.052;8.354;2022-10-24T05:04:31;99647.00;;;17.80
16956;BMP180;8594;52.052;8.354;2022-10-24T05:06:58;99650.00;;;17.70
16956;BMP180;8594;52.052;8.354;2022-10-24T05:09:25;99647.00;;;17.70
16956;BMP180;8594;52.052;8.354;2022-10-24T05:11:54;99649.00;;;17.60
16956;BMP180;8594;52.052;8.354;2022-10-24T05:14:21;99646.00;;;17.50
16956;BMP180;8594;52.052;8.354;2022-10-24T05:16:48;99648.00;;;17.50
16956;BMP180;8594;52.052;8.354;2022-10-24T05:19:15;99649.00;;;17.40
16956;BMP180;8594;52.052;8.354;2022-10-24T05:21:43;99646.00;;;17.40
16956;BMP180;8594;52.052;8.354;2022-10-24T05:24:10;99645.00;;;17.50
16956;BMP180;8594;52.052;8.354;2022-10-24T05:26:37;99640.00;;;17.50
16956;BMP180;8594;52.052;8.354;2022-10-24T05:29:04;99627.00;;;17.40
16956;BMP180;8594;52.052;8.354;2022-10-24T05:31:31;99636.00;;;17.70
16956;BMP180;8594;52.052;8.354;2022-10-24T05:33:58;99629.00;;;17.70
16956;BMP180;8594;52.052;8.354;2022-10-24T05:36:25;99636.00;;;17.70
16956;BMP180;8594;52.052;8.354;2022-10-24T05:38:53;99631.00;;;17.80
16956;BMP180;8594;52.052;8.354;2022-10-24T05:41:21;99621.00;;;17.90
16956;BMP180;8594;52.052;8.354;2022-10-24T05:43:48;99624.00;;;17.60
16956;BMP180;8594;52.052;8.354;2022-10-24T05:46:15;99623.00;;;17.80
16956;BMP180;8594;52.052;8.354;2022-10-24T05:48:43;99612.00;;;17.80
16956;BMP180;8594;52.052;8.354;2022-10-24T05:51:10;99628.00;;;17.90
16956;BMP180;8594;52.052;8.354;2022-10-24T05:53:37;99633.00;;;17.80
16956;BMP180;8594;52.052;8.354;2022-10-24T05:56:06;99637.00;;;17.90
16956;BMP180;8594;52.052;8.354;2022-10-24T05:58:33;99640.00;;;17.70
16956;BMP180;8594;52.052;8.354;2022-10-24T06:01:00;99639.00;;;17.80
16956;BMP180;8594;52.052;8.354;2022-10-24T06:03:27;99634.00;;;17.80
16956;BMP180;8594;52.052;8.354;2022-10-24T06:05:54;99638.00;;;18.00
16956;BMP180;8594;52.052;8.354;2022-10-24T06:08:21;99635.00;;;17.90
16956;BMP180;8594;52.052;8.354;2022-10-24T06:10:49;99630.00;;;18.10
16956;BMP180;8594;52.052;8.354;2022-10-24T06:13:18;99632.00;;;18.00
16956;BMP180;8594;52.052;8.354;2022-10-24T06:15:45;99635.00;;;18.00
16956;BMP180;8594;52.052;8.354;2022-10-24T06:18:12;99629.00;;;18.00
16956;BMP180;8594;52.052;8.354;2022-10-24T06:20:40;99651.00;;;17.90
16956;BMP180;8594;52.052;8.354;2022-10-24T06:23:07;99646.00;;;18.00
16956;BMP180;8594;52.052;8.354;2022-10-24T06:25:34;99658.00;;;18.10
16956;BMP180;8594;52.052;8.354;2022-10-24T06:28:01;99665.00;;;18.20
16956;BMP180;8594;52.052;8.354;2022-10-24T06:30:30;99662.00;;;18.30
16956;BMP180;8594;52.052;8.354;2022-10-24T06:32:57;99672.00;;;18.30
16956;BMP180;8594;52.052;8.354;2022-10-24T06:35:24;99667.00;;;18.30
16956;BMP180;8594;52.052;8.354;2022-10-24T06:37:51;99671.00;;;18.20
16956;BMP180;8594;52.052;8.354;2022-10-24T06:40:18;99678.00;;;18.40
16956;BMP180;8594;52.052;8.354;2022-10-24T06:42:45;99684.00;;;18.40
16956;BMP180;8594;52.052;8.354;2022-10-24T06:45:13;99683.00;;;18.40
16956;BMP180;8594;52.052;8.354;2022-10-24T06:47:41;99689.00;;;18.50
16956;BMP180;8594;52.052;8.354;2022-10-24T06:50:09;99692.00;;;18.50
16956;BMP180;8594;52.052;8.354;2022-10-24T06:52:36;99681.00;;;18.50
16956;BMP180;8594;52.052;8.354;2022-10-24T06:55:04;99693.00;;;18.70
16956;BMP180;8594;52.052;8.354;2022-10-24T06:57:31;99693.00;;;19.00
16956;BMP180;8594;52.052;8.354;2022-10-24T06:59:58;99690.00;;;18.90
16956;BMP180;8594;52.052;8.354;2022-10-24T07:02:25;99693.00;;;18.90
16956;BMP180;8594;52.052;8.354;2022-10-24T07:04:53;99694.00;;;19.30
16956;BMP180;8594;52.052;8.354;2022-10-24T07:07:22;99707.00;;;19.40
16956;BMP180;8594;52.052;8.354;2022-10-24T07:09:52;99700.00;;;19.70
16956;BMP180;8594;52.052;8.354;2022-10-24T07:12:20;99708.00;;;19.60
16956;BMP180;8594;52.052;8.354;2022-10-24T07:14:47;99717.00;;;20.10
16956;BMP180;8594;52.052;8.354;2022-10-24T07:17:14;99714.00;;;20.20
16956;BMP180;8594;52.052;8.354;2022-10-24T07:19:41;99721.00;;;20.40
16956;BMP180;8594;52.052;8.354;2022-10-24T07:22:09;99721.00;;;20.50
16956;BMP180;8594;52.052;8.354;2022-10-24T07:24:36;99724.00;;;20.30
16956;BMP180;8594;52.052;8.354;2022-10-24T07:27:03;99725.00;;;20.20
16956;BMP180;8594;52.052;8.354;2022-10-24T07:29:30;99721.00;;;20.10
16956;BMP180;8594;52.052;8.354;2022-10-24T07:31:57;99722.00;;;20.40
16956;BMP180;8594;52.052;8.354;2022-10-24T07:34:24;99732.00;;;20.20
16956;BMP180;8594;52.052;8.354;2022-10-24T07:36:51;99725.00;;;20.60
16956;BMP180;8594;52.052;8.354;2022-10-24T07:39:19;99725.00;;;20.30
16956;BMP180;8594;52.052;8.354;2022-10-24T07:41:46;99725.00;;;20.60
16956;BMP180;8594;52.052;8.354;2022-10-24T07:44:13;99724.00;;;20.80
16956;BMP180;8594;52.052;8.354;2022-10-24T07:46:41;99727.00;;;20.70
16956;BMP180;8594;52.052;8.354;2022-10-24T07:49:08;99729.00;;;20.80
16956;BMP180;8594;52.052;8.354;2022-10-24T07:51:35;99732.00;;;20.30
16956;BMP180;8594;52.052;8.354;2022-10-24T07:54:03;99730.00;;;20.80
16956;BMP180;8594;52.052;8.354;2022-10-24T07:56:32;99736.00;;;20.60
16956;BMP180;8594;52.052;8.354;2022-10-24T07:58:59;99734.00;;;20.60
16956;BMP180;8594;52.052;8.354;2022-10-24T08:01:27;99737.00;;;20.60
16956;BMP180;8594;52.052;8.354;2022-10-24T08:03:55;99730.00;;;20.40
16956;BMP180;8594;52.052;8.354;2022-10-24T08:06:26;99724.00;;;20.30
16956;BMP180;8594;52.052;8.354;2022-10-24T08:08:54;99715.00;;;19.90
16956;BMP180;8594;52.052;8.354;2022-10-24T08:11:24;99718.00;;;20.20
16956;BMP180;8594;52.052;8.354;2022-10-24T08:13:54;99713.00;;;20.20
16956;BMP180;8594;52.052;8.354;2022-10-24T08:16:23;99697.00;;;20.00
16956;BMP180;8594;52.052;8.354;2022-10-24T08:18:52;99703.00;;;20.40
16956;BMP180;8594;52.052;8.354;2022-10-24T08:21:21;99701.00;;;21.20
16956;BMP180;8594;52.052;8.354;2022-10-24T08:23:51;99697.00;;;22.00
16956;BMP180;8594;52.052;8.354;2022-10-24T08:26:20;99693.00;;;22.20
16956;BMP180;8594;52.052;8.354;2022-10-24T08:28:49;99695.00;;;21.80
16956;BMP180;8594;52.052;8.354;2022-10-24T08:31:20;99694.00;;;22.10
16956;BMP180;8594;52.052;8.354;2022-10-24T08:33:51;99705.00;;;21.70
16956;BMP180;8594;52.052;8.354;2022-10-24T08:36:24;99701.00;;;22.10
16956;BMP180;8594;52.052;8.354;2022-10-24T08:38:51;99700.00;;;22.30
16956;BMP180;8594;52.052;8.354;2022-10-24T08:41:28;99704.00;;;22.90
16956;BMP180;8594;52.052;8.354;2022-10-24T08:43:59;99704.00;;;22.40
16956;BMP180;8594;52.052;8.354;2022-10-24T08:46:50;99701.00;;;22.40
16956;BMP180;8594;52.052;8.354;2022-10-24T08:49:29;99707.00;;;22.50
16956;BMP180;8594;52.052;8.354;2022-10-24T08:52:00;99708.00;;;22.90
16956;BMP180;8594;52.052;8.354;2022-10-24T08:54:35;99708.00;;;23.30
16956;BMP180;8594;52.052;8.354;2022-10-24T08:57:08;99705.00;;;22.90
16956;BMP180;8594;52.052;8.354;2022-10-24T08:59:36;99715.00;;;23.50
16956;BMP180;8594;52.052;8.354;2022-10-24T09:02:15;99718.00;;;23.90
16956;BMP180;8594;52.052;8.354;2022-10-24T09:04:48;99712.00;;;23.20
16956;BMP180;8594;52.052;8.354;2022-10-24T09:07:19;99720.00;;;23.00
16956;BMP180;8594;52.052;8.354;2022-10-24T09:09:50;99723.00;;;23.20
16956;BMP180;8594;52.052;8.354;2022-10-24T09:12:19;99725.00;;;22.60
16956;BMP180;8594;52.052;8.354;2022-10-24T09:14:53;99729.00;;;22.30
16956;BMP180;8594;52.052;8.354;2022-10-24T09:17:26;99744.00;;;22.40
16956;BMP180;8594;52.052;8.354;2022-10-24T09:19:57;99730.00;;;21.60
16956;BMP180;8594;52.052;8.354;2022-10-24T09:22:28;99737.00;;;21.50
16956;BMP180;8594;52.052;8.354;2022-10-24T09:25:00;99734.00;;;21.70
16956;BMP180;8594;52.052;8.354;2022-10-24T09:27:31;99747.00;;;21.10
16956;BMP180;8594;52.052;8.354;2022-10-24T09:29:59;99734.00;;;21.30
16956;BMP180;8594;52.052;8.354;2022-10-24T09:32:30;99732.00;;;21.00
16956;BMP180;8594;52.052;8.354;2022-10-24T09:35:00;99736.00;;;21.10
16956;BMP180;8594;52.052;8.354;2022-10-24T09:37:35;99744.00;;;21.40
16956;BMP180;8594;52.052;8.354;2022-10-24T09:40:22;99746.00;;;21.00
16956;BMP180;8594;52.052;8.354;2022-10-24T09:42:55;99749.00;;;20.60
16956;BMP180;8594;52.052;8.354;2022-10-24T09:45:38;99758.00;;;20.90
16956;BMP180;8594;52.052;8.354;2022-10-24T09:48:18;99752.00;;;20.30
16956;BMP180;8594;52.052;8.354;2022-10-24T09:50:49;99765.00;;;20.70
16956;BMP180;8594;52.052;8.354;2022-10-24T09:53:29;99756.00;;;20.50
16956;BMP180;8594;52.052;8.354;2022-10-24T09:56:02;99765.00;;;20.50
16956;BMP180;8594;52.052;8.354;2022-10-24T09:58:33;99767.00;;;20.50
16956;BMP180;8594;52.052;8.354;2022-10-24T10:01:05;99773.00;;;20.70
16956;BMP180;8594;52.052;8.354;2022-10-24T10:03:34;99771.00;;;20.40
16956;BMP180;8594;52.052;8.354;2022-10-24T10:06:04;99781.00;;;19.90
16956;BMP180;8594;52.052;8.354;2022-10-24T10:08:49;99770.00;;;20.00
16956;BMP180;8594;52.052;8.354;2022-10-24T10:11:25;99787.00;;;20.60
16956;BMP180;8594;52.052;8.354;2022-10-24T10:13:56;99787.00;;;20.80
16956;BMP180;8594;52.052;8.354;2022-10-24T10:16:29;99789.00;;;20.90
16956;BMP180;8594;52.052;8.354;2022-10-24T10:19:04;99782.00;;;21.00
16956;BMP180;8594;52.052;8.354;2022-10-24T10:21:55;99769.00;;;21.10
16956;BMP180;8594;52.052;8.354;2022-10-24T10:24:36;99787.00;;;21.40
16956;BMP180;8594;52.052;8.354;2022-10-24T10:27:26;99788.00;;;21.30
16956;BMP180;8594;52.052;8.354;2022-10-24T10:30:17;99792.00;;;21.00
16956;BMP180;8594;52.052;8.354;2022-10-24T10:33:00;99806.00;;;20.70
16956;BMP180;8594;52.052;8.354;2022-10-24T10:35:40;99821.00;;;20.60
16956;BMP180;8594;52.052;8.354;2022-10-24T10:38:29;99818.00;;;20.20
16956;BMP180;8594;52.052;8.354;2022-10-24T10:41:06;99840.00;;;20.20
16956;BMP180;8594;52.052;8.354;2022-10-24T10:43:42;99829.00;;;20.40
16956;BMP180;8594;52.052;8.354;2022-10-24T10:46:26;99824.00;;;20.20
16956;BMP180;8594;52.052;8.354;2022-10-24T10:49:12;99808.00;;;20.80
16956;BMP180;8594;52.052;8.354;2022-10-24T10:51:49;99823.00;;;21.10
16956;BMP180;8594;52.052;8.354;2022-10-24T10:54:43;99817.00;;;20.60
16956;BMP180;8594;52.052;8.354;2022-10-24T10:57:19;99813.00;;;20.70
16956;BMP180;8594;52.052;8.354;2022-10-24T10:59:56;99818.00;;;20.80
16956;BMP180;8594;52.052;8.354;2022-10-24T11:05:52;99826.00;;;20.60
16956;BMP180;8594;52.052;8.354;2022-10-24T11:09:07;99836.00;;;20.40
16956;BMP180;8594;52.052;8.354;2022-10-24T11:11:40;99847.00;;;20.50
16956;BMP180;8594;52.052;8.354;2022-10-24T11:14:25;99831.00;;;19.90
16956;BMP180;8594;52.052;8.354;2022-10-24T11:16:59;99828.00;;;20.40
16956;BMP180;8594;52.052;8.354;2022-10-24T11:19:35;99834.00;;;20.60
16956;BMP180;8594;52.052;8.354;2022-10-24T11:22:09;99822.00;;;21.40
16956;BMP180;8594;52.052;8.354;2022-10-24T11:24:48;99821.00;;;21.40
16956;BMP180;8594;52.052;8.354;2022-10-24T11:27:23;99824.00;;;21.90
16956;BMP180;8594;52.052;8.354;2022-10-24T11:29:56;99822.00;;;21.70
16956;BMP180;8594;52.052;8.354;2022-10-24T11:32:33;99822.00;;;22.70
16956;BMP180;8594;52.052;8.354;2022-10-24T11:35:16;99823.00;;;22.20
16956;BMP180;8594;52.052;8.354;2022-10-24T11:37:50;99827.00;;;23.00
16956;BMP180;8594;52.052;8.354;2022-10-24T11:40:22;99822.00;;;22.90
16956;BMP180;8594;52.052;8.354;2022-10-24T11:42:57;99817.00;;;22.70
16956;BMP180;8594;52.052;8.354;2022-10-24T11:45:39;99830.00;;;22.60
16956;BMP180;8594;52.052;8.354;2022-10-24T11:48:16;99839.00;;;22.60
16956;BMP180;8594;52.052;8.354;2022-10-24T11:50:50;99844.00;;;22.30
16956;BMP180;8594;52.052;8.354;2022-10-24T11:53:46;99835.00;;;21.60
16956;BMP180;8594;52.052;8.354;2022-10-24T11:56:23;99835.00;;;22.00
16956;BMP180;8594;52.052;8.354;2022-10-24T11:58:58;99835.00;;;21.80
16956;BMP180;8594;52.052;8.354;2022-10-24T12:01:59;99830.00;;;22.00
16956;BMP180;8594;52.052;8.354;2022-10-24T12:04:56;99852.00;;;21.80
16956;BMP180;8594;52.052;8.354;2022-10-24T12:08:10;99839.00;;;22.00
16956;BMP180;8594;52.052;8.354;2022-10-24T12:11:19;99837.00;;;22.10
16956;BMP180;8594;52.052;8.354;2022-10-24T12:14:23;99838.00;;;21.80
16956;BMP180;8594;52.052;8.354;2022-10-24T12:17:25;99830.00;;;22.40
16956;BMP180;8594;52.052;8.354;2022-10-24T12:19:54;99837.00;;;22.80
16956;BMP180;8594;52.052;8.354;2022-10-24T12:22:26;99836.00;;;22.20
16956;BMP180;8594;52.052;8.354;2022-10-24T12:25:04;99848.00;;;22.00
16956;BMP180;8594;52.052;8.354;2022-10-24T12:27:38;99844.00;;;21.50
16956;BMP180;8594;52.052;8.354;2022-10-24T12:30:16;99848.00;;;21.50
16956;BMP180;8594;52.052;8.354;2022-10-24T12:32:50;99842.00;;;21.30
16956;BMP180;8594;52.052;8.354;2022-10-24T12:35:48;99844.00;;;21.80
16956;BMP180;8594;52.052;8.354;2022-10-24T12:39:06;99846.00;;;22.30
16956;BMP180;8594;52.052;8.354;2022-10-24T12:41:42;99849.00;;;22.60
16956;BMP180;8594;52.052;8.354;2022-10-24T12:44:39;99854.00;;;22.00
16956;BMP180;8594;52.052;8.354;2022-10-24T12:47:37;99850.00;;;22.10
16956;BMP180;8594;52.052;8.354;2022-10-24T12:50:54;99856.00;;;21.80
16956;BMP180;8594;52.052;8.354;2022-10-24T12:53:41;99860.00;;;22.00
16956;BMP180;8594;52.052;8.354;2022-10-24T12:56:26;99863.00;;;21.80
16956;BMP180;8594;52.052;8.354;2022-10-24T12:59:13;99856.00;;;21.90
16956;BMP180;8594;52.052;8.354;2022-10-24T13:01:41;99857.00;;;21.30
16956;BMP180;8594;52.052;8.354;2022-10-24T13:04:47;99851.00;;;21.30
16956;BMP180;8594;52.052;8.354;2022-10-24T13:07:36;99847.00;;;21.50
16956;BMP180;8594;52.052;8.354;2022-10-24T13:10:29;99852.00;;;21.20
16956;BMP180;8594;52.052;8.354;2022-10-24T13:13:20;99853.00;;;21.30
16956;BMP180;8594;52.052;8.354;2022-10-24T13:15:57;99850.00;;;21.20
16956;BMP180;8594;52.052;8.354;2022-10-24T13:18:44;99854.00;;;21.00
16956;BMP180;8594;52.052;8.354;2022-10-24T13:21:23;99847.00;;;21.20
16956;BMP180;8594;52.052;8.354;2022-10-24T13:23:53;99848.00;;;21.00
16956;BMP180;8594;52.052;8.354;2022-10-24T13:26:38;99848.00;;;21.10
16956;BMP180;8594;52.052;8.354;2022-10-24T13:29:12;99851.00;;;21.40
16956;BMP180;8594;52.052;8.354;2022-10-24T13:31:48;99843.00;;;20.90
16956;BMP180;8594;52.052;8.354;2022-10-24T13:34:21;99848.00;;;21.10
16956;BMP180;8594;52.052;8.354;2022-10-24T13:36:58;99853.00;;;21.50
16956;BMP180;8594;52.052;8.354;2022-10-24T13:39:30;99840.00;;;21.30
16956;BMP180;8594;52.052;8.354;2022-10-24T13:42:02;99849.00;;;21.50
16956;BMP180;8594;52.052;8.354;2022-10-24T13:44:41;99857.00;;;21.40
16956;BMP180;8594;52.052;8.354;2022-10-24T13:47:18;99861.00;;;21.00
16956;BMP180;8594;52.052;8.354;2022-10-24T13:50:02;99865.00;;;21.10
16956;BMP180;8594;52.052;8.354;2022-10-24T13:52:37;99859.00;;;21.00
16956;BMP180;8594;52.052;8.354;2022-10-24T13:55:22;99863.00;;;21.10
16956;BMP180;8594;52.052;8.354;2022-10-24T13:57:54;99864.00;;;21.20
16956;BMP180;8594;52.052;8.354;2022-10-24T14:00:26;99869.00;;;20.90
16956;BMP180;8594;52.052;8.354;2022-10-24T14:02:56;99871.00;;;20.90
16956;BMP180;8594;52.052;8.354;2022-10-24T14:05:35;99865.00;;;20.80
16956;BMP180;8594;52.052;8.354;2022-10-24T14:08:06;99863.00;;;20.60
16956;BMP180;8594;52.052;8.354;2022-10-24T14:10:36;99858.00;;;20.50
16956;BMP180;8594;52.052;8.354;2022-10-24T14:13:03;99863.00;;;20.60
16956;BMP180;8594;52.052;8.354;2022-10-24T14:15:32;99849.00;;;20.70
16956;BMP180;8594;52.052;8.354;2022-10-24T14:18:02;99862.00;;;21.00
16956;BMP180;8594;52.052;8.354;2022-10-24T14:20:34;99856.00;;;20.30
16956;BMP180;8594;52.052;8.354;2022-10-24T14:23:01;99859.00;;;20.50
16956;BMP180;8594;52.052;8.354;2022-10-24T14:25:40;99864.00;;;20.70
16956;BMP180;8594;52.052;8.354;2022-10-24T14:28:14;99873.00;;;20.50
16956;BMP180;8594;52.052;8.354;2022-10-24T14:30:53;99865.00;;;20.50
16956;BMP180;8594;52.052;8.354;2022-10-24T14:33:24;99877.00;;;20.20
16956;BMP180;8594;52.052;8.354;2022-10-24T14:35:54;99882.00;;;20.30
16956;BMP180;8594;52.052;8.354;2022-10-24T14:38:22;99882.00;;;20.30
16956;BMP180;8594;52.052;8.354;2022-10-24T14:40:50;99878.00;;;20.20
16956;BMP180;8594;52.052;8.354;2022-10-24T14:43:24;99880.00;;;20.40
16956;BMP180;8594;52.052;8.354;2022-10-24T14:46:35;99876.00;;;20.30
16956;BMP180;8594;52.052;8.354;2022-10-24T14:49:20;99868.00;;;20.40
16956;BMP180;8594;52.052;8.354;2022-10-24T14:51:50;99878.00;;;20.50
16956;BMP180;8594;52.052;8.354;2022-10-24T14:54:21;99877.00;;;20.50
16956;BMP180;8594;52.052;8.354;2022-10-24T14:56:49;99882.00;;;20.70
16956;BMP180;8594;52.052;8.354;2022-10-24T14:59:23;99892.00;;;20.60